createdAt,value
2018-11-21T03:13:56.895Z,71.97
2018-11-21T03:17:01.191Z,71.05
2018-11-21T03:20:07.559Z,72.72
2018-11-21T03:23:13.891Z,79.82
2018-11-21T03:26:20.258Z,76.70
2018-11-21T03:32:38.727Z,81.08
2018-11-21T03:35:44.896Z,78.05
2018-11-21T03:38:51.435Z,74.58
2018-11-21T03:41:58.251Z,73.40
2018-11-21T03:45:05.091Z,68.95
2018-11-21T03:48:12.015Z,69.70
2018-11-21T03:51:17.084Z,70.03
2018-11-21T03:54:20.256Z,65.47
2018-11-21T03:57:22.555Z,59.48
2018-11-21T04:00:29.808Z,56.70
2018-11-21T04:03:36.206Z,69.47
2018-11-21T04:06:40.105Z,73.67
2018-11-21T04:09:44.439Z,70.10
2018-11-21T04:12:51.033Z,70.35
2018-11-21T04:15:56.671Z,66.72
2018-11-21T04:19:03.037Z,61.55
2018-11-21T04:22:06.207Z,57.13
2018-11-21T04:25:14.411Z,57.60
2018-11-21T04:28:20.034Z,59.30
2018-11-21T04:31:23.014Z,57.80
2018-11-21T04:34:30.235Z,56.77
2018-11-21T04:37:37.775Z,54.05
2018-11-21T04:40:44.455Z,52.80
2018-11-21T04:43:50.952Z,53.28
2018-11-21T04:46:57.397Z,52.58
2018-11-21T04:50:03.665Z,54.70
2018-11-21T04:53:10.689Z,52.43
2018-11-21T04:56:15.337Z,52.25
2018-11-21T04:59:20.882Z,55.15
2018-11-21T05:02:24.956Z,53.63
2018-11-21T05:05:27.773Z,55.55
2018-11-21T05:08:34.632Z,54.03
2018-11-21T05:11:41.923Z,54.08
2018-11-21T05:14:48.866Z,52.38
2018-11-21T05:17:55.394Z,54.40
2018-11-21T05:21:01.533Z,54.13
2018-11-21T05:24:03.856Z,52.62
2018-11-21T05:27:09.986Z,51.77
2018-11-21T05:30:15.453Z,53.73
2018-11-21T05:33:18.844Z,53.65
2018-11-21T05:36:25.376Z,53.15
2018-11-21T05:39:28.808Z,52.50
2018-11-21T05:42:34.986Z,50.35
2018-11-21T05:45:40.539Z,49.10
2018-11-21T05:48:47.434Z,52.03
2018-11-21T05:51:54.172Z,49.18
2018-11-21T05:55:00.555Z,49.00
2018-11-21T05:58:05.522Z,49.10
2018-11-21T06:01:12.400Z,50.10
2018-11-21T06:04:18.845Z,48.90
2018-11-21T06:07:21.466Z,51.35
2018-11-21T06:10:26.492Z,48.65
2018-11-21T06:13:32.858Z,48.83
2018-11-21T06:16:39.863Z,50.50
2018-11-21T06:19:43.919Z,49.50
2018-11-21T06:22:50.550Z,50.35
2018-11-21T06:25:58.451Z,51.02
2018-11-21T06:29:03.559Z,48.83
2018-11-21T06:32:10.372Z,51.13
2018-11-21T06:35:17.028Z,50.63
2018-11-21T06:38:27.426Z,50.05
2018-11-21T06:41:37.031Z,49.95
2018-11-21T06:44:43.881Z,48.50
2018-11-21T06:47:50.847Z,47.43
2018-11-21T06:50:55.063Z,45.40
2018-11-21T06:54:01.300Z,44.98
2018-11-21T06:57:08.213Z,46.65
2018-11-21T07:00:14.470Z,44.23
2018-11-21T07:03:21.198Z,43.50
2018-11-21T07:06:27.367Z,42.23
2018-11-21T07:09:34.602Z,42.05
2018-11-21T07:12:41.188Z,40.40
2018-11-21T07:15:48.003Z,42.50
2018-11-21T07:18:54.033Z,43.30
2018-11-21T07:22:01.936Z,43.83
2018-11-21T07:25:05.447Z,42.23
2018-11-21T07:28:13.408Z,41.60
2018-11-21T07:31:19.574Z,41.98
2018-11-21T07:34:26.475Z,41.15
2018-11-21T07:37:36.899Z,41.23
2018-11-21T07:40:40.343Z,38.60
2018-11-21T07:43:46.405Z,39.75
2018-11-21T07:46:48.505Z,37.08
2018-11-21T07:49:55.343Z,36.77
2018-11-21T07:53:01.518Z,34.23
2018-11-21T07:56:09.973Z,37.83
2018-11-21T07:59:17.001Z,39.40
2018-11-21T08:02:26.388Z,39.18
2018-11-21T08:05:36.053Z,38.10
2018-11-21T08:09:06.487Z,40.67
2018-11-21T08:12:27.313Z,39.95
2018-11-21T08:15:47.103Z,39.10
2018-11-21T08:19:08.506Z,40.38
2018-11-21T08:22:38.536Z,38.28
2018-11-21T08:26:03.774Z,38.23
2018-11-21T08:29:10.488Z,39.58
2018-11-21T08:32:17.975Z,39.90
2018-11-21T08:35:24.704Z,37.88
2018-11-21T08:38:31.005Z,40.88
2018-11-21T08:41:40.287Z,41.13
2018-11-21T08:44:51.288Z,42.23
2018-11-21T08:47:57.901Z,40.70
2018-11-21T08:51:05.362Z,40.03
2018-11-21T08:54:11.601Z,39.65
2018-11-21T08:57:21.751Z,41.73
2018-11-21T09:00:29.044Z,40.85
2018-11-21T09:03:35.814Z,40.40
2018-11-21T09:06:42.839Z,39.60
2018-11-21T09:09:48.329Z,38.78
2018-11-21T09:12:51.346Z,38.95
2018-11-21T09:15:58.917Z,38.38
2018-11-21T09:19:06.021Z,39.55
2018-11-21T09:22:14.060Z,38.30
2018-11-21T09:25:20.926Z,38.88
2018-11-21T09:28:28.875Z,38.20
2018-11-21T09:31:36.571Z,39.42
2018-11-21T09:34:43.339Z,37.08
2018-11-21T09:37:50.703Z,40.92
2018-11-21T09:40:53.469Z,40.17
2018-11-21T09:44:00.694Z,40.10
2018-11-21T09:47:09.546Z,37.70
2018-11-21T09:50:18.584Z,36.33
2018-11-21T09:53:25.341Z,36.20
2018-11-21T09:56:31.999Z,37.98
2018-11-21T09:59:39.126Z,38.20
2018-11-21T10:03:02.467Z,36.75
2018-11-21T10:06:26.700Z,36.98
2018-11-21T10:09:35.338Z,34.05
2018-11-21T10:12:43.354Z,34.40
2018-11-21T10:15:47.260Z,32.70
2018-11-21T10:18:55.477Z,33.20
2018-11-21T10:22:02.394Z,31.97
2018-11-21T10:25:05.178Z,32.63
2018-11-21T10:28:11.878Z,32.08
2018-11-21T10:31:20.425Z,33.15
2018-11-21T10:34:23.093Z,32.60
2018-11-21T10:37:30.090Z,32.85
2018-11-21T10:40:36.612Z,33.60
2018-11-21T10:43:42.814Z,31.48
2018-11-21T10:46:49.660Z,32.55
2018-11-21T10:49:56.558Z,32.15
2018-11-21T10:53:02.841Z,32.48
2018-11-21T10:56:08.890Z,32.17
2018-11-21T10:59:15.184Z,32.45
2018-11-21T11:02:45.219Z,31.52
2018-11-21T11:06:07.677Z,31.42
2018-11-21T11:09:30.832Z,31.12
2018-11-21T11:12:57.454Z,33.13
2018-11-21T11:16:18.477Z,31.52
2018-11-21T11:19:49.419Z,30.90
2018-11-21T11:23:19.579Z,30.95
2018-11-21T11:26:49.452Z,33.73
2018-11-21T11:30:06.615Z,30.92
2018-11-21T11:33:30.380Z,31.93
2018-11-21T11:36:54.572Z,31.93
2018-11-21T11:40:17.430Z,31.37
2018-11-21T11:43:39.698Z,32.28
2018-11-21T11:47:11.142Z,34.33
2018-11-21T11:50:33.364Z,40.25
2018-11-21T11:54:06.497Z,53.92
2018-11-21T11:57:29.975Z,51.98
2018-11-21T12:00:51.770Z,53.80
2018-11-21T12:04:12.472Z,52.88
2018-11-21T12:07:45.374Z,51.13
2018-11-21T12:11:03.803Z,50.58
2018-11-21T12:14:36.015Z,46.23
2018-11-21T12:18:10.632Z,44.93
2018-11-21T12:21:47.822Z,45.05
2018-11-21T12:25:10.869Z,46.05
2018-11-21T12:28:34.141Z,45.65
2018-11-21T12:31:57.286Z,46.85
2018-11-21T12:35:20.981Z,46.02
2018-11-21T12:42:06.365Z,51.28
2018-11-21T12:45:26.316Z,47.00
2018-11-21T12:48:48.359Z,44.00
2018-11-21T12:52:15.669Z,45.43
2018-11-21T12:55:33.205Z,43.28
2018-11-21T12:58:51.345Z,42.10
2018-11-21T13:02:01.764Z,43.38
2018-11-21T13:05:23.236Z,45.05
2018-11-21T13:08:45.935Z,45.95
2018-11-21T13:12:09.938Z,50.65
2018-11-21T13:15:31.524Z,45.55
2018-11-21T13:18:52.050Z,41.75
2018-11-21T13:22:15.264Z,42.38
2018-11-21T13:25:45.919Z,42.00
2018-11-21T13:29:08.119Z,42.55
2018-11-21T13:32:23.929Z,43.28
2018-11-21T13:36:01.937Z,43.48
2018-11-21T13:39:33.402Z,46.02
2018-11-21T13:43:00.963Z,46.65
2018-11-21T13:46:23.596Z,45.30
2018-11-21T13:49:50.051Z,46.02
2018-11-21T13:53:21.767Z,44.95
2018-11-21T13:56:28.255Z,44.95
2018-11-21T13:59:31.333Z,47.83
2018-11-21T14:02:36.497Z,48.68
2018-11-21T14:05:40.241Z,48.17
2018-11-21T14:08:46.307Z,47.65
2018-11-21T14:11:54.432Z,46.35
2018-11-21T14:15:01.289Z,47.30
2018-11-21T14:18:09.651Z,47.88
2018-11-21T14:21:17.030Z,47.90
2018-11-21T14:24:25.439Z,47.10
2018-11-21T14:27:29.507Z,48.92
2018-11-21T14:30:32.449Z,48.52
2018-11-21T14:33:39.517Z,47.95
2018-11-21T14:36:42.093Z,46.58
2018-11-21T14:39:49.204Z,48.60
2018-11-21T14:42:56.069Z,49.80
2018-11-21T14:45:59.649Z,51.50
2018-11-21T14:49:07.362Z,51.60
2018-11-21T14:52:12.816Z,52.50
2018-11-21T14:55:19.703Z,50.58
2018-11-21T14:58:24.771Z,51.63
2018-11-21T15:01:32.012Z,51.53
2018-11-21T15:04:34.414Z,51.98
2018-11-21T15:07:41.182Z,51.40
2018-11-21T15:10:47.013Z,52.70
2018-11-21T15:13:53.556Z,51.35
2018-11-21T15:17:03.711Z,51.95
2018-11-21T15:20:08.666Z,53.13
2018-11-21T15:23:15.441Z,55.58
2018-11-21T15:26:21.723Z,53.83
2018-11-21T15:29:27.778Z,53.63
2018-11-21T15:32:31.502Z,53.15
2018-11-21T15:35:42.134Z,52.83
2018-11-21T15:38:49.192Z,54.30
2018-11-21T15:41:52.872Z,54.15
2018-11-21T15:44:57.862Z,54.00
2018-11-21T15:48:04.360Z,56.35
2018-11-21T15:51:09.957Z,55.95
2018-11-21T15:54:33.366Z,55.80
2018-11-21T15:57:52.436Z,55.92
2018-11-21T16:01:05.282Z,57.05
2018-11-21T16:04:13.913Z,56.30
2018-11-21T16:07:40.001Z,55.83
2018-11-21T16:24:08.217Z,56.58
2018-11-21T16:27:19.351Z,57.70
2018-11-21T16:30:27.392Z,56.18
2018-11-21T16:36:59.182Z,56.48
2018-11-21T16:40:15.000Z,55.92
2018-11-21T16:43:25.957Z,57.67
2018-11-21T16:46:41.489Z,57.95
2018-11-21T16:49:48.997Z,58.83
2018-11-21T16:52:55.802Z,57.00
2018-11-21T16:56:01.823Z,57.23
2018-11-21T16:59:08.403Z,57.85
2018-11-21T17:02:15.048Z,56.33
2018-11-21T17:05:25.005Z,55.23
2018-11-21T17:08:31.031Z,55.25
2018-11-21T17:11:33.090Z,53.45
2018-11-21T17:14:36.807Z,54.48
2018-11-21T17:17:44.321Z,51.40
2018-11-21T17:20:48.817Z,52.80
2018-11-21T17:23:55.414Z,53.73
2018-11-21T17:27:02.124Z,53.52
2018-11-21T17:30:11.704Z,53.55
